WAT2837 NGFU-NGTA
Flight info
| Callsign | WAT2837 |
|---|---|
| Flight time | 2h 16m |
| Altitude | 32000 |
| Route | FU A584 AKUMO R332 BO |
| Aircraft | HDJT/L-SABDGRWY/H |
Departure
| Time | 2026-05-04 08:52 |
|---|---|
| Airport | Funafuti International Airport (NGFU) |
Arrival
| Time | 2026-05-04 11:08 |
|---|---|
| Airport | Bonriki International Airport (NGTA) |
| Time | Latitude | Longitude | Altitude | Speed | Heading |
|---|---|---|---|---|---|
| 2026-05-04 08:37 | -8.52485 | 179.19542 | 3 ft | 0 kts | 146° |
| 2026-05-04 08:48 | -8.52486 | 179.19543 | 3 ft | 1 kts | 146° |
| 2026-05-04 08:48 | -8.52502 | 179.19560 | 3 ft | 7 kts | 104° |
| 2026-05-04 08:49 | -8.52465 | 179.19619 | 4 ft | 14 kts | 45° |
| 2026-05-04 08:50 | -8.51960 | 179.20092 | 6 ft | 15 kts | 43° |
| 2026-05-04 08:50 | -8.51888 | 179.20140 | 4 ft | 7 kts | 57° |
| 2026-05-04 08:51 | -8.51902 | 179.20148 | 4 ft | 5 kts | 223° |
| 2026-05-04 08:51 | -8.51998 | 179.20057 | 6 ft | 54 kts | 223° |
| 2026-05-04 08:51 | -8.52477 | 179.19615 | 5 ft | 130 kts | 221° |
| 2026-05-04 08:51 | -8.53196 | 179.19001 | 390 ft | 140 kts | 220° |
| 2026-05-04 08:52 | -8.53662 | 179.18084 | 613 ft | 157 kts | 269° |
| 2026-05-04 08:52 | -8.53360 | 179.17050 | 1083 ft | 156 kts | 303° |
| 2026-05-04 08:52 | -8.52778 | 179.16144 | 1591 ft | 155 kts | 305° |
| 2026-05-04 08:52 | -8.52200 | 179.15219 | 2133 ft | 156 kts | 304° |
| 2026-05-04 08:53 | -8.51592 | 179.14253 | 2390 ft | 178 kts | 305° |
| 2026-05-04 08:54 | -8.46131 | 179.05592 | 6484 ft | 231 kts | 303° |
| 2026-05-04 08:55 | -8.45267 | 179.04221 | 7224 ft | 231 kts | 303° |
| 2026-05-04 08:55 | -8.44396 | 179.02843 | 7948 ft | 234 kts | 303° |
| 2026-05-04 08:55 | -8.43515 | 179.01448 | 8658 ft | 237 kts | 303° |
| 2026-05-04 08:55 | -8.42623 | 179.00037 | 9414 ft | 240 kts | 303° |
| 2026-05-04 08:57 | -8.36133 | 178.89765 | 14315 ft | 257 kts | 302° |
| 2026-05-04 09:01 | -8.21713 | 178.66974 | 22939 ft | 296 kts | 300° |
| 2026-05-04 09:01 | -8.20599 | 178.65213 | 23531 ft | 299 kts | 300° |
| 2026-05-04 09:01 | -8.19473 | 178.63436 | 24049 ft | 302 kts | 300° |
| 2026-05-04 09:01 | -8.18340 | 178.61649 | 24585 ft | 303 kts | 300° |
| 2026-05-04 09:02 | -8.17202 | 178.59851 | 25119 ft | 305 kts | 300° |
| 2026-05-04 09:02 | -8.16056 | 178.58043 | 25658 ft | 306 kts | 300° |
| 2026-05-04 09:02 | -8.14905 | 178.56227 | 26188 ft | 308 kts | 300° |
| 2026-05-04 09:02 | -8.13747 | 178.54400 | 26715 ft | 310 kts | 300° |
| 2026-05-04 09:03 | -8.12582 | 178.52561 | 27233 ft | 312 kts | 301° |
| 2026-05-04 09:03 | -8.11409 | 178.50712 | 27734 ft | 314 kts | 301° |
| 2026-05-04 09:03 | -8.10229 | 178.48849 | 28228 ft | 316 kts | 301° |
| 2026-05-04 09:03 | -8.09041 | 178.46977 | 28713 ft | 318 kts | 301° |
| 2026-05-04 09:04 | -8.07844 | 178.45089 | 29132 ft | 321 kts | 301° |
| 2026-05-04 09:04 | -8.06635 | 178.43182 | 29582 ft | 323 kts | 301° |
| 2026-05-04 09:04 | -8.05418 | 178.41265 | 30015 ft | 325 kts | 301° |
| 2026-05-04 09:04 | -8.04195 | 178.39336 | 30381 ft | 327 kts | 301° |
| 2026-05-04 09:05 | -8.02969 | 178.37405 | 30817 ft | 326 kts | 301° |
| 2026-05-04 09:05 | -8.01748 | 178.35481 | 31243 ft | 325 kts | 301° |
| 2026-05-04 09:05 | -8.00531 | 178.33562 | 31673 ft | 324 kts | 301° |
| 2026-05-04 09:05 | -7.99308 | 178.31636 | 31884 ft | 331 kts | 301° |
| 2026-05-04 09:06 | -7.98046 | 178.29646 | 31886 ft | 342 kts | 301° |
| 2026-05-04 09:07 | -7.88423 | 178.14497 | 31885 ft | 386 kts | 301° |
| 2026-05-04 09:08 | -7.86969 | 178.12210 | 31886 ft | 389 kts | 301° |
| 2026-05-04 09:08 | -7.84029 | 178.07585 | 31888 ft | 394 kts | 302° |
| 2026-05-04 09:09 | -7.81055 | 178.02909 | 31889 ft | 398 kts | 302° |
| 2026-05-04 09:09 | -7.78055 | 177.98194 | 31890 ft | 401 kts | 302° |
| 2026-05-04 09:10 | -7.75037 | 177.93451 | 31890 ft | 403 kts | 302° |
| 2026-05-04 09:10 | -7.72006 | 177.88688 | 31890 ft | 404 kts | 302° |
| 2026-05-04 09:11 | -7.68966 | 177.83914 | 31889 ft | 405 kts | 302° |
| 2026-05-04 09:11 | -7.65919 | 177.79130 | 31889 ft | 406 kts | 302° |
| 2026-05-04 09:12 | -7.62868 | 177.74343 | 31889 ft | 406 kts | 302° |
| 2026-05-04 09:14 | -7.50644 | 177.55171 | 31885 ft | 407 kts | 302° |
| 2026-05-04 09:14 | -7.47583 | 177.50375 | 31885 ft | 407 kts | 302° |
| 2026-05-04 09:15 | -7.44521 | 177.45578 | 31885 ft | 407 kts | 302° |
| 2026-05-04 09:15 | -7.41458 | 177.40780 | 31885 ft | 407 kts | 302° |
| 2026-05-04 09:17 | -7.27657 | 177.19186 | 31881 ft | 408 kts | 301° |
| 2026-05-04 09:18 | -7.24586 | 177.14384 | 31880 ft | 408 kts | 301° |
| 2026-05-04 09:18 | -7.21513 | 177.09580 | 31877 ft | 408 kts | 301° |
| 2026-05-04 09:19 | -7.18438 | 177.04776 | 31878 ft | 408 kts | 301° |
| 2026-05-04 09:19 | -7.15364 | 176.99974 | 31878 ft | 408 kts | 301° |
| 2026-05-04 09:20 | -7.12288 | 176.95171 | 31880 ft | 408 kts | 301° |
| 2026-05-04 09:20 | -7.09211 | 176.90367 | 31881 ft | 408 kts | 301° |
| 2026-05-04 09:21 | -7.06130 | 176.85559 | 31878 ft | 409 kts | 301° |
| 2026-05-04 09:21 | -7.03048 | 176.80750 | 31882 ft | 409 kts | 301° |
| 2026-05-04 09:22 | -6.99983 | 176.75969 | 31879 ft | 409 kts | 301° |
| 2026-05-04 09:22 | -6.96896 | 176.71156 | 31885 ft | 409 kts | 301° |
| 2026-05-04 09:23 | -6.93809 | 176.66343 | 31885 ft | 409 kts | 301° |
| 2026-05-04 09:23 | -6.90719 | 176.61528 | 31885 ft | 409 kts | 301° |
| 2026-05-04 09:25 | -6.78358 | 176.42277 | 31883 ft | 410 kts | 301° |
| 2026-05-04 09:26 | -6.75263 | 176.37461 | 31878 ft | 410 kts | 301° |
| 2026-05-04 09:26 | -6.72166 | 176.32643 | 31882 ft | 410 kts | 301° |
| 2026-05-04 09:27 | -6.69069 | 176.27826 | 31882 ft | 410 kts | 301° |
| 2026-05-04 09:27 | -6.65972 | 176.23010 | 31878 ft | 410 kts | 302° |
| 2026-05-04 09:28 | -6.62872 | 176.18192 | 31882 ft | 410 kts | 302° |
| 2026-05-04 09:28 | -6.59771 | 176.13372 | 31877 ft | 411 kts | 301° |
| 2026-05-04 09:29 | -6.56667 | 176.08550 | 31882 ft | 411 kts | 301° |
| 2026-05-04 09:29 | -6.53559 | 176.03723 | 31882 ft | 411 kts | 301° |
| 2026-05-04 09:30 | -6.50451 | 175.98898 | 31882 ft | 411 kts | 302° |
| 2026-05-04 09:30 | -6.47343 | 175.94071 | 31882 ft | 411 kts | 302° |
| 2026-05-04 09:31 | -6.44233 | 175.89246 | 31881 ft | 411 kts | 302° |
| 2026-05-04 09:31 | -6.41123 | 175.84421 | 31881 ft | 411 kts | 302° |
| 2026-05-04 09:32 | -6.38013 | 175.79597 | 31881 ft | 411 kts | 302° |
| 2026-05-04 09:34 | -6.25049 | 175.60733 | 31887 ft | 414 kts | 317° |
| 2026-05-04 09:34 | -6.20147 | 175.57698 | 31889 ft | 418 kts | 336° |
| 2026-05-04 09:35 | -6.14613 | 175.55868 | 31895 ft | 419 kts | 340° |
| 2026-05-04 09:35 | -6.09068 | 175.54063 | 31895 ft | 419 kts | 340° |
| 2026-05-04 09:37 | -5.86892 | 175.46900 | 31896 ft | 418 kts | 340° |
| 2026-05-04 09:38 | -5.81358 | 175.45112 | 31894 ft | 418 kts | 340° |
| 2026-05-04 09:38 | -5.75822 | 175.43323 | 31891 ft | 418 kts | 340° |
| 2026-05-04 09:39 | -5.70288 | 175.41537 | 31891 ft | 418 kts | 340° |
| 2026-05-04 09:39 | -5.64748 | 175.39749 | 31889 ft | 418 kts | 340° |
| 2026-05-04 09:40 | -5.59208 | 175.37960 | 31889 ft | 418 kts | 340° |
| 2026-05-04 09:40 | -5.53667 | 175.36171 | 31889 ft | 418 kts | 340° |
| 2026-05-04 09:42 | -5.32434 | 175.29322 | 31886 ft | 418 kts | 340° |
| 2026-05-04 09:43 | -5.26892 | 175.27536 | 31882 ft | 418 kts | 340° |
| 2026-05-04 09:43 | -5.21351 | 175.25750 | 31882 ft | 418 kts | 340° |
| 2026-05-04 09:44 | -5.15811 | 175.23964 | 31884 ft | 418 kts | 340° |
| 2026-05-04 09:46 | -4.93645 | 175.16824 | 31882 ft | 418 kts | 341° |
| 2026-05-04 09:46 | -4.88141 | 175.15051 | 31886 ft | 418 kts | 341° |
| 2026-05-04 09:47 | -4.82597 | 175.13267 | 31881 ft | 418 kts | 341° |
| 2026-05-04 09:49 | -4.60427 | 175.06132 | 31878 ft | 418 kts | 341° |
| 2026-05-04 09:51 | -4.40988 | 174.99880 | 31876 ft | 420 kts | 341° |
| 2026-05-04 09:51 | -4.35419 | 174.98089 | 31876 ft | 420 kts | 341° |
| 2026-05-04 09:52 | -4.29846 | 174.96298 | 31876 ft | 421 kts | 341° |
| 2026-05-04 09:52 | -4.24276 | 174.94508 | 31876 ft | 421 kts | 341° |
| 2026-05-04 09:53 | -4.18702 | 174.92716 | 31872 ft | 421 kts | 341° |
| 2026-05-04 09:53 | -4.13126 | 174.90925 | 31872 ft | 421 kts | 341° |
| 2026-05-04 09:54 | -4.07541 | 174.89131 | 31877 ft | 422 kts | 341° |
| 2026-05-04 09:54 | -4.01954 | 174.87336 | 31876 ft | 422 kts | 341° |
| 2026-05-04 09:55 | -3.96362 | 174.85540 | 31874 ft | 422 kts | 341° |
| 2026-05-04 09:55 | -3.90766 | 174.83743 | 31876 ft | 422 kts | 341° |
| 2026-05-04 09:56 | -3.85172 | 174.81947 | 31874 ft | 422 kts | 341° |
| 2026-05-04 09:56 | -3.79575 | 174.80150 | 31876 ft | 422 kts | 341° |
| 2026-05-04 09:57 | -3.74016 | 174.78366 | 31871 ft | 423 kts | 341° |
| 2026-05-04 09:57 | -3.68413 | 174.76568 | 31872 ft | 423 kts | 341° |
| 2026-05-04 09:58 | -3.62807 | 174.74768 | 31872 ft | 423 kts | 341° |
| 2026-05-04 09:58 | -3.57199 | 174.72969 | 31872 ft | 423 kts | 341° |
| 2026-05-04 10:00 | -3.34763 | 174.65773 | 31873 ft | 423 kts | 341° |
| 2026-05-04 10:04 | -2.95724 | 174.53259 | 31871 ft | 422 kts | 341° |
| 2026-05-04 10:04 | -2.90129 | 174.51466 | 31871 ft | 422 kts | 341° |
| 2026-05-04 10:05 | -2.84530 | 174.49673 | 31869 ft | 423 kts | 341° |
| 2026-05-04 10:05 | -2.78967 | 174.47890 | 31869 ft | 423 kts | 341° |
| 2026-05-04 10:06 | -2.73362 | 174.46095 | 31870 ft | 423 kts | 341° |
| 2026-05-04 10:06 | -2.67758 | 174.44300 | 31870 ft | 423 kts | 341° |
| 2026-05-04 10:08 | -2.48144 | 174.38020 | 31867 ft | 423 kts | 341° |
| 2026-05-04 10:08 | -2.42541 | 174.36226 | 31865 ft | 423 kts | 341° |
| 2026-05-04 10:09 | -2.36938 | 174.34432 | 31865 ft | 423 kts | 341° |
| 2026-05-04 10:09 | -2.31335 | 174.32639 | 31866 ft | 423 kts | 341° |
| 2026-05-04 10:10 | -2.25732 | 174.30845 | 31865 ft | 423 kts | 341° |
| 2026-05-04 10:10 | -2.20131 | 174.29053 | 31866 ft | 422 kts | 341° |
| 2026-05-04 10:11 | -2.14535 | 174.27262 | 31868 ft | 422 kts | 341° |
| 2026-05-04 10:11 | -2.08937 | 174.25471 | 31868 ft | 422 kts | 341° |
| 2026-05-04 10:12 | -2.03343 | 174.23681 | 31868 ft | 422 kts | 341° |
| 2026-05-04 10:12 | -1.97746 | 174.21890 | 31868 ft | 422 kts | 341° |
| 2026-05-04 10:13 | -1.92148 | 174.20099 | 31871 ft | 422 kts | 341° |
| 2026-05-04 10:13 | -1.86589 | 174.18321 | 31871 ft | 422 kts | 341° |
| 2026-05-04 10:14 | -1.80988 | 174.16529 | 31871 ft | 423 kts | 341° |
| 2026-05-04 10:16 | -1.58569 | 174.09360 | 31871 ft | 423 kts | 341° |
| 2026-05-04 10:16 | -1.52961 | 174.07566 | 31870 ft | 423 kts | 341° |
| 2026-05-04 10:17 | -1.47357 | 174.05774 | 31872 ft | 423 kts | 341° |
| 2026-05-04 10:19 | -1.24905 | 173.98596 | 31872 ft | 424 kts | 341° |
| 2026-05-04 10:19 | -1.19288 | 173.96800 | 31872 ft | 424 kts | 341° |
| 2026-05-04 10:20 | -1.13670 | 173.95005 | 31872 ft | 424 kts | 341° |
| 2026-05-04 10:20 | -1.08051 | 173.93208 | 31871 ft | 424 kts | 341° |
| 2026-05-04 10:21 | -1.02424 | 173.91409 | 31871 ft | 425 kts | 341° |
| 2026-05-04 10:21 | -0.96796 | 173.89610 | 31870 ft | 425 kts | 341° |
| 2026-05-04 10:22 | -0.88351 | 173.86911 | 31870 ft | 425 kts | 341° |
| 2026-05-04 10:23 | -0.82722 | 173.85112 | 31870 ft | 425 kts | 341° |
| 2026-05-04 10:25 | -0.60234 | 173.77925 | 31874 ft | 425 kts | 341° |
| 2026-05-04 10:25 | -0.54601 | 173.76126 | 31874 ft | 425 kts | 341° |
| 2026-05-04 10:26 | -0.48968 | 173.74325 | 31874 ft | 425 kts | 341° |
| 2026-05-04 10:26 | -0.43333 | 173.72525 | 31874 ft | 425 kts | 341° |
| 2026-05-04 10:27 | -0.37700 | 173.70725 | 31869 ft | 425 kts | 341° |
| 2026-05-04 10:27 | -0.32066 | 173.68924 | 31869 ft | 425 kts | 341° |
| 2026-05-04 10:28 | -0.26428 | 173.67123 | 31872 ft | 426 kts | 341° |
| 2026-05-04 10:28 | -0.20786 | 173.65320 | 31872 ft | 426 kts | 341° |
| 2026-05-04 10:29 | -0.15143 | 173.63517 | 31872 ft | 426 kts | 341° |
| 2026-05-04 10:29 | -0.10451 | 173.62018 | 31872 ft | 426 kts | 341° |
| 2026-05-04 10:30 | -0.04809 | 173.60215 | 31876 ft | 426 kts | 341° |
| 2026-05-04 10:30 | 0.00833 | 173.58412 | 31878 ft | 426 kts | 341° |
| 2026-05-04 10:31 | 0.07438 | 173.56302 | 31875 ft | 427 kts | 341° |
| 2026-05-04 10:32 | 0.26321 | 173.50268 | 31873 ft | 428 kts | 341° |
| 2026-05-04 10:33 | 0.32001 | 173.48453 | 31873 ft | 429 kts | 341° |
| 2026-05-04 10:33 | 0.37680 | 173.46638 | 31873 ft | 429 kts | 341° |
| 2026-05-04 10:34 | 0.43364 | 173.44822 | 31875 ft | 429 kts | 341° |
| 2026-05-04 10:34 | 0.49043 | 173.43007 | 31875 ft | 429 kts | 341° |
| 2026-05-04 10:35 | 0.54723 | 173.41193 | 31873 ft | 429 kts | 341° |
| 2026-05-04 10:35 | 0.60404 | 173.39377 | 31873 ft | 429 kts | 341° |
| 2026-05-04 10:36 | 0.66086 | 173.37561 | 31873 ft | 429 kts | 341° |
| 2026-05-04 10:36 | 0.71767 | 173.35745 | 31873 ft | 429 kts | 341° |
| 2026-05-04 10:37 | 0.77451 | 173.33929 | 31873 ft | 429 kts | 341° |
| 2026-05-04 10:37 | 0.83141 | 173.32110 | 31873 ft | 430 kts | 341° |
| 2026-05-04 10:39 | 1.03087 | 173.25735 | 31876 ft | 430 kts | 341° |
| 2026-05-04 10:40 | 1.08790 | 173.23913 | 31867 ft | 430 kts | 341° |
| 2026-05-04 10:40 | 1.14492 | 173.22089 | 31862 ft | 430 kts | 341° |
| 2026-05-04 10:41 | 1.20161 | 173.20278 | 31857 ft | 431 kts | 341° |
| 2026-05-04 10:41 | 1.25908 | 173.18440 | 31852 ft | 431 kts | 341° |
| 2026-05-04 10:41 | 1.28702 | 173.17530 | 31671 ft | 420 kts | 339° |
| 2026-05-04 10:42 | 1.31281 | 173.16329 | 31240 ft | 399 kts | 328° |
| 2026-05-04 10:42 | 1.33507 | 173.14784 | 30809 ft | 382 kts | 319° |
| 2026-05-04 10:42 | 1.35384 | 173.12986 | 30379 ft | 367 kts | 310° |
| 2026-05-04 10:42 | 1.36908 | 173.11000 | 29948 ft | 354 kts | 301° |
| 2026-05-04 10:43 | 1.38086 | 173.08885 | 29449 ft | 343 kts | 293° |
| 2026-05-04 10:44 | 1.41001 | 172.93726 | 26184 ft | 309 kts | 277° |
| 2026-05-04 10:45 | 1.41310 | 172.91599 | 25758 ft | 309 kts | 276° |
| 2026-05-04 10:45 | 1.41620 | 172.89477 | 25347 ft | 309 kts | 277° |
| 2026-05-04 10:45 | 1.41929 | 172.87350 | 24947 ft | 310 kts | 276° |
| 2026-05-04 10:45 | 1.42238 | 172.85219 | 24559 ft | 310 kts | 276° |
| 2026-05-04 10:46 | 1.42549 | 172.83095 | 24180 ft | 309 kts | 278° |
| 2026-05-04 10:46 | 1.43144 | 172.81028 | 23802 ft | 313 kts | 291° |
| 2026-05-04 10:46 | 1.44202 | 172.79123 | 23432 ft | 316 kts | 304° |
| 2026-05-04 10:46 | 1.45672 | 172.77488 | 23005 ft | 318 kts | 317° |
| 2026-05-04 10:47 | 1.47492 | 172.76212 | 22581 ft | 322 kts | 329° |
| 2026-05-04 10:47 | 1.49574 | 172.75376 | 22170 ft | 325 kts | 343° |
| 2026-05-04 10:47 | 1.51811 | 172.75039 | 21771 ft | 327 kts | 357° |
| 2026-05-04 10:47 | 1.54083 | 172.75231 | 21382 ft | 329 kts | 11° |
| 2026-05-04 10:49 | 1.61448 | 172.87601 | 18913 ft | 333 kts | 108° |
| 2026-05-04 10:49 | 1.60526 | 172.89706 | 18590 ft | 330 kts | 122° |
| 2026-05-04 10:50 | 1.59145 | 172.91527 | 18270 ft | 329 kts | 135° |
| 2026-05-04 10:51 | 1.46472 | 173.01142 | 15816 ft | 322 kts | 144° |
| 2026-05-04 10:52 | 1.44687 | 173.02475 | 15278 ft | 318 kts | 144° |
| 2026-05-04 10:52 | 1.42946 | 173.03774 | 15417 ft | 315 kts | 144° |
| 2026-05-04 10:52 | 1.41247 | 173.05168 | 14206 ft | 317 kts | 135° |
| 2026-05-04 10:54 | 1.37612 | 173.19053 | 9889 ft | 260 kts | 97° |
| 2026-05-04 10:54 | 1.37421 | 173.20751 | 9880 ft | 233 kts | 91° |
| 2026-05-04 10:56 | 1.44661 | 173.20969 | 7727 ft | 217 kts | 283° |
| 2026-05-04 10:56 | 1.44975 | 173.19501 | 7397 ft | 216 kts | 282° |
| 2026-05-04 10:56 | 1.45284 | 173.18041 | 7082 ft | 214 kts | 283° |
| 2026-05-04 10:57 | 1.45561 | 173.16591 | 6806 ft | 211 kts | 278° |
| 2026-05-04 10:57 | 1.45734 | 173.15146 | 6532 ft | 208 kts | 276° |
| 2026-05-04 10:57 | 1.45887 | 173.13715 | 6260 ft | 206 kts | 277° |
| 2026-05-04 10:57 | 1.46031 | 173.12298 | 5970 ft | 204 kts | 276° |
| 2026-05-04 10:58 | 1.46170 | 173.10902 | 5728 ft | 200 kts | 276° |
| 2026-05-04 10:58 | 1.46307 | 173.09526 | 5486 ft | 198 kts | 276° |
| 2026-05-04 10:58 | 1.46439 | 173.08166 | 5221 ft | 195 kts | 276° |
| 2026-05-04 10:58 | 1.46575 | 173.06821 | 5009 ft | 194 kts | 276° |
| 2026-05-04 10:59 | 1.46706 | 173.05482 | 4755 ft | 195 kts | 276° |
| 2026-05-04 10:59 | 1.46843 | 173.04141 | 4552 ft | 199 kts | 276° |
| 2026-05-04 10:59 | 1.46986 | 173.02749 | 4312 ft | 204 kts | 276° |
| 2026-05-04 10:59 | 1.47142 | 173.01302 | 4066 ft | 209 kts | 277° |
| 2026-05-04 11:00 | 1.47291 | 172.99844 | 3850 ft | 215 kts | 276° |
| 2026-05-04 11:01 | 1.43943 | 172.94586 | 2464 ft | 160 kts | 143° |
| 2026-05-04 11:02 | 1.43015 | 172.95178 | 2275 ft | 156 kts | 142° |
| 2026-05-04 11:02 | 1.42346 | 172.95979 | 2076 ft | 149 kts | 112° |
| 2026-05-04 11:05 | 1.38942 | 173.08524 | 987 ft | 104 kts | 96° |
| 2026-05-04 11:06 | 1.38853 | 173.09218 | 872 ft | 99 kts | 95° |
| 2026-05-04 11:06 | 1.38767 | 173.09893 | 759 ft | 98 kts | 94° |
| 2026-05-04 11:06 | 1.38682 | 173.10574 | 647 ft | 101 kts | 96° |
| 2026-05-04 11:06 | 1.38596 | 173.11272 | 466 ft | 101 kts | 94° |
| 2026-05-04 11:08 | 1.38144 | 173.14693 | 9 ft | 2 kts | 153° |
| 2026-05-04 11:10 | 1.38088 | 173.14594 | 11 ft | 0 kts | 277° |